»·PEaware :: AJT457 KSFO-CYVR

AJT457 :: KSFO-CYVR

FLIGHT INFORMATION

Flight Status: Arrived
Operator: Unknown
More flights by this operator :: More flights under this callsign
Pilot: Alan S. (10569)
Aircraft: BOEING 727-200
(B722)
More flights by this aircraft type
Origin: KSFO San Francisco Intl
United States
Destination: CYVR Vancouver Intl
Canada
More flights between these airports :: More routes between these airports
Route: +RBL J1 BTG SEA PAE PAINE4
File this flight plan on PilotEdge
Remarks: AMERIJET
Altitude:
(Current/Filed)
30,000ft
Speed:
(Current/Filed)
493kts
Departed: 18-Jun-17 03:06 PM
Arrived: 18-Jun-17 04:54 PM
Distance/Time
Traveled:
695nm/1:48
Distance/Time
To Go:
Arrived

Flight Plot

Page will automatically refresh every two minutes.

Flight plan parsing failed; only flown route is shown


Map Options




Map Legend


Flown Route
Filed Route
Departure Airport
Arrival Airport
Navaid (VOR, NDB)
Fix

Horizontal Profiles

Position Reports

Time Latitude Longitude Heading Altitude Ground
Speed
18-Jun-17 14:02 37.636156 -122.387649 60 23ft 0kts
18-Jun-17 14:03 37.636156 -122.387649 60 23ft 0kts
18-Jun-17 14:04 37.636156 -122.387649 60 23ft 0kts
18-Jun-17 14:05 37.636156 -122.387649 60 23ft 0kts
18-Jun-17 14:06 37.636156 -122.387649 60 23ft 0kts
18-Jun-17 14:07 37.636156 -122.387649 60 23ft 0kts
18-Jun-17 14:08 37.636156 -122.387649 60 23ft 0kts
18-Jun-17 14:09 37.636156 -122.387649 60 23ft 0kts
18-Jun-17 14:10 37.636156 -122.387649 60 23ft 0kts
18-Jun-17 14:11 37.636156 -122.387649 60 23ft 0kts
18-Jun-17 14:12 37.636156 -122.387649 60 23ft 0kts
18-Jun-17 14:13 37.636156 -122.387649 60 23ft 0kts
18-Jun-17 14:14 37.636156 -122.387649 60 23ft 0kts
18-Jun-17 14:15 37.636156 -122.387649 60 23ft 0kts
18-Jun-17 14:16 37.636156 -122.387649 60 23ft 0kts
18-Jun-17 14:17 37.636156 -122.387649 60 23ft 0kts
18-Jun-17 14:18 37.636156 -122.387649 60 23ft 0kts
18-Jun-17 14:19 37.636156 -122.387649 60 23ft 0kts
18-Jun-17 14:20 37.636156 -122.387649 60 23ft 0kts
18-Jun-17 14:21 37.636156 -122.387649 60 23ft 0kts
18-Jun-17 14:22 37.636156 -122.387649 60 23ft 0kts
18-Jun-17 14:23 37.636156 -122.387649 60 23ft 0kts
18-Jun-17 14:24 37.636156 -122.387649 60 23ft 0kts
18-Jun-17 14:25 37.636156 -122.387649 60 23ft 0kts
18-Jun-17 14:26 37.636156 -122.387649 60 23ft 0kts
18-Jun-17 14:27 37.636156 -122.387649 60 23ft 0kts
18-Jun-17 14:29 37.636156 -122.387649 60 23ft 0kts
18-Jun-17 14:30 37.636156 -122.387649 60 23ft 0kts
18-Jun-17 14:31 37.636156 -122.387649 60 23ft 0kts
18-Jun-17 14:32 37.636156 -122.387649 60 23ft 0kts
18-Jun-17 14:33 37.636156 -122.387649 60 23ft 0kts
18-Jun-17 14:34 37.636156 -122.387649 60 23ft 0kts
18-Jun-17 14:35 37.636156 -122.387649 60 23ft 0kts
18-Jun-17 14:36 37.636156 -122.387649 60 23ft 0kts
18-Jun-17 14:37 37.636156 -122.387649 60 23ft 0kts
18-Jun-17 14:38 37.636156 -122.387649 60 23ft 0kts
18-Jun-17 14:39 37.636156 -122.387649 60 23ft 0kts
18-Jun-17 14:40 37.636156 -122.387649 60 23ft 0kts
18-Jun-17 14:41 37.636156 -122.387649 60 23ft 0kts
18-Jun-17 14:42 37.636156 -122.387649 60 23ft 0kts
18-Jun-17 14:43 37.635888 -122.388452 144 23ft 0kts
18-Jun-17 14:44 37.635888 -122.388452 144 23ft 0kts
18-Jun-17 14:45 37.635888 -122.388452 144 23ft 0kts
18-Jun-17 14:46 37.635888 -122.388452 144 23ft 0kts
18-Jun-17 14:47 37.635888 -122.388452 144 23ft 0kts
18-Jun-17 14:48 37.635888 -122.388452 144 23ft 0kts
18-Jun-17 14:49 37.635888 -122.388452 144 23ft 0kts
18-Jun-17 14:50 37.635888 -122.388452 144 23ft 0kts
18-Jun-17 14:51 37.635390 -122.388070 167 23ft 8kts
18-Jun-17 14:52 37.634066 -122.390399 246 23ft 9kts
18-Jun-17 14:53 37.631938 -122.391483 212 23ft 10kts
18-Jun-17 14:54 37.629449 -122.391387 118 23ft 12kts
18-Jun-17 14:55 37.627744 -122.387291 118 23ft 13kts
18-Jun-17 14:56 37.626036 -122.383245 118 23ft 12kts
18-Jun-17 14:57 37.624396 -122.379317 118 23ft 12kts
18-Jun-17 14:58 37.622807 -122.375526 118 23ft 12kts
18-Jun-17 14:59 37.621263 -122.371853 118 23ft 11kts
18-Jun-17 15:00 37.619786 -122.368349 118 23ft 11kts
18-Jun-17 15:01 37.619247 -122.367074 118 23ft 0kts
18-Jun-17 15:02 37.618889 -122.366229 118 23ft 5kts
18-Jun-17 15:03 37.618520 -122.365360 118 23ft 6kts
18-Jun-17 15:04 37.616561 -122.360668 118 23ft 13kts
18-Jun-17 15:05 37.615584 -122.358241 117 23ft 5kts
18-Jun-17 15:06 37.614637 -122.356758 170 23ft 0kts
18-Jun-17 15:07 37.614637 -122.356758 170 23ft 0kts
18-Jun-17 15:08 37.613862 -122.358003 294 23ft 18kts
18-Jun-17 15:09 37.628637 -122.392639 299 396ft 173kts
18-Jun-17 15:10 37.653132 -122.451159 296 2225ft 206kts
18-Jun-17 15:11 37.682101 -122.522351 295 4074ft 257kts
18-Jun-17 15:12 37.717050 -122.611891 294 6781ft 292kts
18-Jun-17 15:13 37.752664 -122.701735 296 9496ft 294kts
18-Jun-17 15:14 37.792647 -122.795254 297 11611ft 315kts
18-Jun-17 15:15 37.835529 -122.894317 304 13666ft 335kts
18-Jun-17 15:16 37.927349 -122.921284 12 15243ft 377kts
18-Jun-17 15:17 38.031271 -122.892187 15 17668ft 395kts
18-Jun-17 15:18 38.140172 -122.858927 15 19605ft 424kts
18-Jun-17 15:19 38.254023 -122.824008 15 21902ft 438kts
18-Jun-17 15:20 38.373855 -122.786772 16 24000ft 453kts
18-Jun-17 15:21 38.497778 -122.748310 16 25949ft 467kts
18-Jun-17 15:22 38.625324 -122.708407 16 27759ft 480kts
18-Jun-17 15:23 38.756603 -122.667332 16 29442ft 493kts
18-Jun-17 15:24 38.892988 -122.624201 16 30131ft 521kts
18-Jun-17 15:25 39.035204 -122.579227 15 29868ft 529kts
18-Jun-17 15:26 39.173733 -122.535904 15 29810ft 528kts
18-Jun-17 15:27 39.314247 -122.491246 15 29813ft 528kts
18-Jun-17 15:28 39.456589 -122.445671 15 29811ft 528kts
18-Jun-17 15:29 39.599051 -122.399844 15 29814ft 528kts
18-Jun-17 15:30 39.741170 -122.353915 15 29823ft 528kts
18-Jun-17 15:31 39.880197 -122.306980 16 29824ft 528kts
18-Jun-17 15:32 40.022894 -122.260415 16 29830ft 529kts
18-Jun-17 15:33 40.162468 -122.266496 350 29823ft 534kts
18-Jun-17 15:34 40.306835 -122.290662 351 29830ft 533kts
18-Jun-17 15:35 40.451731 -122.327028 350 29835ft 534kts
18-Jun-17 15:36 40.597223 -122.364920 350 29837ft 535kts
18-Jun-17 15:37 40.742715 -122.403022 350 29838ft 536kts
18-Jun-17 15:38 40.888915 -122.441476 350 29840ft 537kts
18-Jun-17 15:39 41.035677 -122.480159 349 29871ft 541kts
18-Jun-17 15:40 41.176393 -122.517235 348 29976ft 539kts
18-Jun-17 15:41 41.320385 -122.555679 348 30081ft 537kts
18-Jun-17 15:42 41.466434 -122.594822 348 30082ft 538kts
18-Jun-17 15:43 41.612852 -122.634218 348 30083ft 538kts
18-Jun-17 15:44 41.751909 -122.674366 343 30081ft 538kts
18-Jun-17 15:45 41.894545 -122.729793 345 30087ft 537kts
18-Jun-17 15:46 42.039815 -122.775401 346 30077ft 538kts
18-Jun-17 15:47 42.177519 -122.818092 346 30057ft 539kts
18-Jun-17 15:48 42.322167 -122.863426 346 30053ft 538kts
18-Jun-17 15:49 42.468205 -122.907422 352 30032ft 539kts
18-Jun-17 15:50 42.616765 -122.910084 4 30054ft 538kts
18-Jun-17 15:51 42.765960 -122.894724 4 30057ft 539kts
18-Jun-17 15:52 42.915135 -122.878849 4 30060ft 540kts
18-Jun-17 15:53 43.064096 -122.853991 5 30103ft 539kts
18-Jun-17 15:54 43.201772 -122.829789 2 30098ft 535kts
18-Jun-17 15:55 43.349554 -122.811704 1 30375ft 534kts
18-Jun-17 15:56 43.495904 -122.794298 1 31320ft 526kts
18-Jun-17 15:57 43.640562 -122.776969 1 32292ft 522kts
18-Jun-17 15:58 43.784361 -122.759754 1 33273ft 519kts
18-Jun-17 15:59 43.927911 -122.742532 1 34165ft 519kts
18-Jun-17 16:00 44.072696 -122.728784 356 34154ft 523kts
18-Jun-17 16:01 44.206519 -122.728907 354 34143ft 523kts
18-Jun-17 16:02 44.349513 -122.735575 354 34147ft 523kts
18-Jun-17 16:03 44.494141 -122.742243 354 34156ft 523kts
18-Jun-17 16:03 44.614774 -122.747735 354 34157ft 523kts
18-Jun-17 16:04 44.760370 -122.754283 354 34158ft 524kts
18-Jun-17 16:05 44.902464 -122.738767 6 34189ft 527kts
18-Jun-17 16:06 45.046954 -122.711143 2 34179ft 527kts
18-Jun-17 16:07 45.184456 -122.688266 0 34174ft 524kts
18-Jun-17 16:08 45.326946 -122.664350 0 34177ft 522kts
18-Jun-17 16:09 45.470246 -122.639985 0 34185ft 521kts
18-Jun-17 16:10 45.613155 -122.615516 0 34186ft 520kts
18-Jun-17 16:11 45.755768 -122.590948 0 34184ft 520kts
18-Jun-17 16:12 45.898448 -122.566467 0 34184ft 517kts
18-Jun-17 16:13 46.040423 -122.541819 0 34198ft 515kts
18-Jun-17 16:14 46.171921 -122.519084 0 34207ft 514kts
18-Jun-17 16:15 46.303313 -122.496128 1 34202ft 515kts
18-Jun-17 16:16 46.445784 -122.471033 1 34190ft 518kts
18-Jun-17 16:17 46.588266 -122.445773 1 34198ft 520kts
18-Jun-17 16:18 46.730138 -122.420499 1 34212ft 521kts
18-Jun-17 16:19 46.871600 -122.395695 0 34208ft 522kts
18-Jun-17 16:20 47.015147 -122.373987 358 34214ft 521kts
18-Jun-17 16:21 47.149972 -122.354051 357 34082ft 504kts
18-Jun-17 16:22 47.269656 -122.328748 359 33228ft 500kts
18-Jun-17 16:23 47.400145 -122.315567 355 32104ft 495kts
18-Jun-17 16:24 47.531485 -122.305855 356 30679ft 496kts
18-Jun-17 16:25 47.668696 -122.295821 356 29055ft 499kts
18-Jun-17 16:26 47.805517 -122.285900 357 27210ft 503kts
18-Jun-17 16:27 47.941679 -122.291075 349 25332ft 491kts
18-Jun-17 16:28 48.076558 -122.309261 349 23450ft 490kts
18-Jun-17 16:29 48.199782 -122.329865 348 21702ft 480kts
18-Jun-17 16:30 48.323175 -122.353203 348 19633ft 420kts
18-Jun-17 16:31 48.428432 -122.373145 348 17788ft 361kts
18-Jun-17 16:32 48.523334 -122.391385 348 16581ft 347kts
18-Jun-17 16:33 48.616708 -122.409259 348 16029ft 331kts
18-Jun-17 16:34 48.700456 -122.448812 309 15359ft 314kts
18-Jun-17 16:35 48.756690 -122.551230 305 14604ft 324kts
18-Jun-17 16:36 48.808351 -122.657538 303 13685ft 332kts
18-Jun-17 16:37 48.858878 -122.768588 302 12364ft 305kts
18-Jun-17 16:38 48.902605 -122.866260 302 10875ft 272kts
18-Jun-17 16:39 48.956918 -122.947939 313 9455ft 286kts
18-Jun-17 16:40 49.011796 -123.037873 312 8188ft 291kts
18-Jun-17 16:41 49.056628 -123.135836 296 7058ft 281kts
18-Jun-17 16:42 49.088034 -123.242760 298 5936ft 273kts
18-Jun-17 16:43 49.112218 -123.344436 287 4951ft 271kts
18-Jun-17 16:44 49.132005 -123.456146 284 4034ft 272kts
18-Jun-17 16:45 49.151398 -123.566590 284 3322ft 265kts
18-Jun-17 16:46 49.164355 -123.669643 278 2944ft 251kts
18-Jun-17 16:47 49.193361 -123.757623 345 3045ft 254kts
18-Jun-17 16:48 49.252085 -123.709213 64 3031ft 264kts
18-Jun-17 16:49 49.234664 -123.615503 109 2973ft 221kts
18-Jun-17 16:50 49.227489 -123.533225 99 2962ft 170kts
18-Jun-17 16:51 49.219323 -123.459931 100 3044ft 195kts
18-Jun-17 16:52 49.209725 -123.377376 97 2167ft 194kts
18-Jun-17 16:53 49.202091 -123.310602 98 1294ft 143kts
18-Jun-17 16:54 49.195345 -123.251492 98 599ft 140kts
18-Jun-17 16:55 49.188613 -123.194541 98 25ft 106kts
18-Jun-17 16:56 49.187143 -123.174574 69 25ft 16kts
18-Jun-17 16:58 49.187964 -123.170367 98 21ft 17kts
18-Jun-17 16:59 49.186520 -123.162560 134 21ft 13kts
18-Jun-17 17:00 49.186804 -123.159720 1 21ft 8kts

Navigation Log

Ident Type
Flight plan parsing failed, navigation log unavailable